15:20
Airports
Links
Donate
Help keep this website running!
PayPal
Bitcoin
METAR
CYFB 191500Z 16003KT 20SM SCT120 BKN140 M27/M30 A2980 RMK AC3AC4 SLP099
Current Weather Conditions at CYFB
VFR 15:00:00 19-01-18
Altimeter:29.80 hg
Temp:-27.0°c -17°f
Dew point:-30.0°c -22°f
Wind:3 knots, 3.5 mph, 2 m/s, from 160°
Visibility:20.0 statute miles
14000(BKN) Broken
12000(SCT) Scattered
Past METAR reports
VFR 14:00:00 19-01-18
Altimeter:29.80 hg
Temp:-28.0°c -18°f
Dew point:-31.0°c -24°f
Wind:0 knots, 0 mph, 0 m/s,
Variable direction
Visibility:20.0 statute miles
14000(OVC) Overcast
12000(SCT) Scattered
CYFB 191400Z 00000KT 20SM SCT120 OVC140 M28/M31 A2980 RMK AC4AC4 SLP098
VFR 13:00:00 19-01-18
Altimeter:29.80 hg
Temp:-28.0°c -18°f
Dew point:-31.0°c -24°f
Wind:0 knots, 0 mph, 0 m/s,
Variable direction
Visibility:20.0 statute miles
16000(BKN) Broken
12000(SCT) Scattered
CYFB 191300Z 00000KT 20SM SCT120 BKN160 M28/M31 A2980 RMK AC3AC3 SLP100
VFR 12:00:00 19-01-18
Altimeter:29.80 hg
Temp:-28.0°c -18°f
Dew point:-31.0°c -24°f
Wind:0 knots, 0 mph, 0 m/s,
Variable direction
Visibility:15.0 statute miles
12000(SCT) Scattered
CYFB 191200Z 00000KT 15SM SCT120 M28/M31 A2980 RMK AC3 SLP098
VFR 11:53:00 19-01-18
Altimeter:29.80 hg
Temp:-28.0°c -18°f
Dew point:-31.0°c -24°f
Wind:0 knots, 0 mph, 0 m/s,
Variable direction
Visibility:15.0 statute miles
12000(SCT) Scattered
CYFB 191153Z 00000KT 15SM SCT120 M28/M31 A2980 RMK AC3 SLP098
VFR 11:00:00 19-01-18
Altimeter:29.80 hg
Temp:-28.0°c -18°f
Dew point:-32.0°c -26°f
Wind:0 knots, 0 mph, 0 m/s,
Variable direction
Visibility:15.0 statute miles
14000(SCT) Scattered
CYFB 191100Z 00000KT 15SM IC SCT140 M28/M32 A2980 RMK AC3 SLP100
VFR 10:00:00 19-01-18
Altimeter:29.81 hg
Temp:-28.0°c -18°f
Dew point:-32.0°c -26°f
Wind:3 knots, 3.5 mph, 2 m/s, from 140°
Visibility:15.0 statute miles
14000(SCT) Scattered
CYFB 191000Z 14003KT 15SM IC SCT140 M28/M32 A2981 RMK AC3 SLP102
TAF
TAF CYFB 191138Z 1912/2012 34005KT P6SM IC SCT060 SCT120 RMK NXT FCST BY 191800Z
Forecast at CYFB
12:00 19-01-18 to 12:00 20-01-18
IC
Wind:5 Knots from 340°
Visibility:6.21 statute miles
6000SCT Scattered
12000SCT Scattered